Time;durP1;ratioP1;P1;durP2;ratioP2;P2;SDS_P1;SDS_P2;PMS_P1;PMS_P2;Temp;Humidity;BMP_temperature;BMP_pressure;BME280_temperature;BME280_humidity;BME280_pressure;Samples;Min_cycle;Max_cycle;Signal;HPM_P1;HPM_P2
2021/10/17 09:04:58;;;;;;;20.17;14.57;;;16.30;42.20;;;;;;5120064;23;20516;-88
2021/10/17 09:07:25;;;;;;;22.03;15.10;;;16.40;44.90;;;;;;5121233;28;20508;-88
2021/10/17 09:10:12;;;;;;;21.43;14.70;;;16.50;44.00;;;;;;5136458;27;20448;-88
2021/10/17 09:12:41;;;;;;;21.13;14.80;;;15.60;44.80;;;;;;5142504;27;20417;-88
2021/10/17 09:15:25;;;;;;;23.07;15.93;;;16.10;45.80;;;;;;5134141;27;20499;-88
2021/10/17 09:18:13;;;;;;;22.67;14.10;;;16.00;44.10;;;;;;5138308;27;20435;-88
2021/10/17 09:20:55;;;;;;;26.60;15.70;;;16.10;44.80;;;;;;5149731;27;20479;-89
2021/10/17 09:23:40;;;;;;;23.30;14.20;;;15.80;44.50;;;;;;5154991;27;20436;-88
2021/10/17 09:26:10;;;;;;;16.60;11.30;;;16.00;44.00;;;;;;5155023;27;20443;-88
2021/10/17 09:28:38;;;;;;;12.90;8.93;;;16.30;47.60;;;;;;5148448;27;20493;-88
2021/10/17 09:31:07;;;;;;;20.80;14.77;;;17.00;47.60;;;;;;5140666;27;20429;-88
2021/10/17 09:33:35;;;;;;;13.80;10.00;;;17.20;42.60;;;;;;5138582;27;20945;-88
2021/10/17 09:36:24;;;;;;;18.30;13.50;;;16.90;45.00;;;;;;5152052;27;20429;-90
2021/10/17 09:38:54;;;;;;;14.03;10.60;;;17.00;43.60;;;;;;5140256;27;20460;-88
2021/10/17 09:41:33;;;;;;;18.40;12.90;;;16.90;44.00;;;;;;5140197;27;20551;-90
2021/10/17 09:44:02;;;;;;;23.10;14.40;;;17.00;44.20;;;;;;5148997;27;20436;-89
2021/10/17 09:46:29;;;;;;;19.30;13.37;;;16.60;42.40;;;;;;5145614;27;20510;-91
2021/10/17 09:48:56;;;;;;;20.83;15.03;;;16.40;43.00;;;;;;5155465;27;20453;-89
2021/10/17 09:51:28;;;;;;;14.80;11.57;;;16.70;43.30;;;;;;5156828;27;20437;-88
2021/10/17 09:53:57;;;;;;;11.93;8.40;;;16.90;44.50;;;;;;5146899;27;20425;-90
2021/10/17 09:56:33;;;;;;;18.63;12.83;;;17.40;46.30;;;;;;5140701;27;20448;-89
2021/10/17 09:59:01;;;;;;;17.57;12.27;;;18.00;42.70;;;;;;5138975;27;20466;-89
2021/10/17 10:01:29;;;;;;;11.80;7.03;;;17.90;40.90;;;;;;5143416;27;20530;-89
2021/10/17 10:03:58;;;;;;;21.07;13.27;;;17.80;44.00;;;;;;5139390;27;20472;-89
2021/10/17 10:06:27;;;;;;;16.47;11.30;;;17.90;41.10;;;;;;5142267;27;20441;-88
2021/10/17 10:08:57;;;;;;;18.00;12.03;;;18.30;43.00;;;;;;5141240;27;20452;-87
2021/10/17 10:11:26;;;;;;;18.67;12.93;;;17.70;41.90;;;;;;5139802;27;20552;-88
2021/10/17 10:13:54;;;;;;;18.97;13.03;;;17.40;41.50;;;;;;5138304;27;20448;-89
2021/10/17 10:16:22;;;;;;;20.17;14.00;;;17.30;41.50;;;;;;5138259;27;20486;-88
2021/10/17 10:18:53;;;;;;;24.87;15.43;;;17.00;42.10;;;;;;5137905;27;20433;-89
2021/10/17 10:21:21;;;;;;;23.93;13.10;;;17.20;42.00;;;;;;5139831;27;20551;-88
2021/10/17 10:23:51;;;;;;;19.33;13.57;;;17.10;41.90;;;;;;5138540;27;20433;-89
2021/10/17 10:26:21;;;;;;;19.20;12.67;;;17.60;42.30;;;;;;5139751;28;20444;-89
2021/10/17 10:28:48;;;;;;;11.00;7.83;;;17.50;42.00;;;;;;5139041;28;20445;-89
2021/10/17 10:31:43;;;;;;;17.50;12.50;;;17.60;44.50;;;;;;5137759;28;20456;-90
2021/10/17 10:34:12;;;;;;;20.10;12.90;;;18.00;41.60;;;;;;5119910;28;20513;-89
2021/10/17 10:36:40;;;;;;;5.97;5.00;;;18.20;40.90;;;;;;5141967;27;20448;-89
2021/10/17 10:39:10;;;;;;;20.90;13.13;;;18.40;44.30;;;;;;5145205;27;20452;-90
2021/10/17 10:41:56;;;;;;;12.87;9.13;;;18.30;40.70;;;;;;5142783;27;20471;-90
2021/10/17 10:44:25;;;;;;;20.60;13.87;;;18.60;43.30;;;;;;5149713;27;20547;-88
2021/10/17 10:46:54;;;;;;;13.20;10.03;;;19.00;39.80;;;;;;5161295;27;20443;-89
2021/10/17 10:49:45;;;;;;;16.93;11.80;;;18.80;41.20;;;;;;5162290;27;20441;-88
2021/10/17 10:52:42;;;;;;;23.57;13.43;;;19.00;42.20;;;;;;5150787;27;20432;-88
2021/10/17 10:55:12;;;;;;;13.23;9.57;;;18.20;40.10;;;;;;5144020;27;20517;-89
2021/10/17 10:57:41;;;;;;;15.40;11.03;;;18.40;43.10;;;;;;5143811;27;20436;-89
2021/10/17 11:00:09;;;;;;;22.53;11.93;;;18.70;41.60;;;;;;5142393;27;20505;-88
2021/10/17 11:02:37;;;;;;;20.43;10.93;;;18.80;41.30;;;;;;5141888;27;20886;-89
2021/10/17 11:05:15;;;;;;;15.43;10.43;;;18.90;40.70;;;;;;5141909;27;20496;-89
2021/10/17 11:07:45;;;;;;;19.40;12.63;;;19.10;40.60;;;;;;5143579;27;20442;-88
2021/10/17 11:10:46;;;;;;;6.77;5.57;;;18.80;39.80;;;;;;5142037;27;20433;-88
2021/10/17 11:13:28;;;;;;;28.47;12.03;;;18.90;41.60;;;;;;5142370;27;20531;-88
2021/10/17 11:15:55;;;;;;;16.83;11.90;;;19.00;40.50;;;;;;5154094;27;20448;-91
2021/10/17 11:18:31;;;;;;;10.97;8.10;;;19.10;40.80;;;;;;5162325;27;20428;-93
2021/10/17 11:21:00;;;;;;;10.80;7.23;;;19.20;43.10;;;;;;5162347;22;20461;-94
2021/10/17 11:23:29;;;;;;;15.00;10.90;;;19.10;41.30;;;;;;5130794;22;20478;-94
2021/10/17 11:25:59;;;;;;;16.20;11.70;;;18.70;40.30;;;;;;5158739;27;20496;-94
2021/10/17 11:28:28;;;;;;;20.40;13.20;;;18.10;42.80;;;;;;5162128;27;20397;-94
2021/10/17 11:31:07;;;;;;;18.87;13.13;;;17.70;42.40;;;;;;5161522;27;20463;-93
2021/10/17 11:33:35;;;;;;;16.40;10.47;;;17.60;43.30;;;;;;5161985;27;20560;-94
2021/10/17 11:36:02;;;;;;;22.47;11.40;;;18.40;43.10;;;;;;5161851;27;20465;-94
2021/10/17 11:38:29;;;;;;;14.10;9.77;;;18.50;42.70;;;;;;5136077;22;20496;-89
2021/10/17 11:41:09;;;;;;;18.77;10.37;;;18.90;42.70;;;;;;5068994;28;20985;-89
2021/10/17 11:43:39;;;;;;;15.03;10.70;;;18.90;40.60;;;;;;5066709;28;20424;-89
2021/10/17 11:46:07;;;;;;;12.73;8.73;;;19.00;41.40;;;;;;5043627;28;20433;-89
2021/10/17 11:48:35;;;;;;;10.73;7.10;;;18.80;42.30;;;;;;5042178;28;20521;-89
2021/10/17 11:51:08;;;;;;;23.77;12.87;;;19.10;42.20;;;;;;5042673;28;20460;-89
2021/10/17 11:53:35;;;;;;;19.07;12.73;;;19.20;39.50;;;;;;5040944;28;20477;-89
2021/10/17 11:56:02;;;;;;;7.67;5.80;;;19.20;40.10;;;;;;5038753;28;20536;-89
2021/10/17 11:58:31;;;;;;;19.93;12.37;;;19.60;43.00;;;;;;5038122;28;20887;-89
2021/10/17 12:01:07;;;;;;;17.93;12.60;;;19.30;39.20;;;;;;5039925;28;20517;-89
2021/10/17 12:03:34;;;;;;;21.53;13.60;;;19.30;40.10;;;;;;5049755;28;20457;-90
2021/10/17 12:06:02;;;;;;;20.97;14.20;;;19.30;39.20;;;;;;5054779;28;20453;-89
2021/10/17 12:08:32;;;;;;;19.80;12.30;;;19.00;39.10;;;;;;5096659;22;20497;-90
2021/10/17 12:11:01;;;;;;;18.93;13.10;;;19.10;39.40;;;;;;5135095;28;20452;-89
2021/10/17 12:13:29;;;;;;;12.07;7.63;;;19.00;39.90;;;;;;5133354;28;20434;-90
2021/10/17 12:16:05;;;;;;;19.10;13.00;;;19.30;42.40;;;;;;5148883;27;20449;-90
2021/10/17 12:18:33;;;;;;;9.27;7.07;;;19.50;39.30;;;;;;5144220;27;20585;-89
2021/10/17 12:21:00;;;;;;;16.17;11.87;;;19.20;41.90;;;;;;5139789;27;20481;-90
2021/10/17 12:23:29;;;;;;;20.80;12.77;;;18.90;39.60;;;;;;5144410;27;20460;-90
2021/10/17 12:25:56;;;;;;;20.43;13.20;;;18.40;41.00;;;;;;5145199;27;20465;-89
2021/10/17 12:28:22;;;;;;;20.50;13.63;;;18.50;40.70;;;;;;5143876;27;20468;-90
2021/10/17 12:30:51;;;;;;;32.20;14.00;;;18.20;40.70;;;;;;5147266;27;20453;-89
2021/10/17 12:33:31;;;;;;;20.20;14.07;;;18.00;41.70;;;;;;5144338;27;20925;-90
2021/10/17 12:36:00;;;;;;;18.57;13.23;;;17.90;42.60;;;;;;5140457;27;20464;-89
2021/10/17 12:38:33;;;;;;;14.93;9.90;;;17.80;42.50;;;;;;5141403;27;20444;-89
2021/10/17 12:41:01;;;;;;;17.47;12.63;;;18.00;43.30;;;;;;5140559;27;20547;-88
2021/10/17 12:43:31;;;;;;;21.37;13.23;;;18.60;41.60;;;;;;5139119;27;20532;-88
2021/10/17 12:46:13;;;;;;;17.40;12.03;;;18.90;41.20;;;;;;5137466;27;20460;-88
2021/10/17 12:48:43;;;;;;;18.53;13.03;;;19.30;41.50;;;;;;5137775;27;20435;-89
2021/10/17 12:54:16;;;;;;;16.17;11.73;;;19.10;39.80;;;;;;5138023;27;20512;-90
2021/10/17 12:56:56;;;;;;;23.37;12.33;;;19.20;39.60;;;;;;5137347;27;20482;-88
2021/10/17 12:59:25;;;;;;;18.47;12.50;;;19.20;39.40;;;;;;5137972;27;20917;-88
2021/10/17 13:02:19;;;;;;;12.70;10.10;;;19.10;39.90;;;;;;5141010;27;20508;-89
2021/10/17 13:04:50;;;;;;;16.20;11.83;;;19.30;40.20;;;;;;5125940;22;20491;-89
2021/10/17 13:07:30;;;;;;;9.97;7.20;;;19.70;39.20;;;;;;5058481;28;20441;-90
2021/10/17 13:10:03;;;;;;;18.70;12.63;;;19.60;40.00;;;;;;5059213;28;20432;-90
2021/10/17 13:12:39;;;;;;;21.27;13.20;;;19.40;38.10;;;;;;5056644;28;20427;-88
2021/10/17 13:15:09;;;;;;;17.30;11.53;;;19.30;39.90;;;;;;5069927;28;20548;-89
2021/10/17 13:17:38;;;;;;;19.30;13.13;;;19.50;39.20;;;;;;5080175;28;20432;-88
2021/10/17 13:20:09;;;;;;;7.10;5.13;;;19.40;39.00;;;;;;5077254;28;20509;-88
2021/10/17 13:22:37;;;;;;;18.07;12.10;;;19.70;41.50;;;;;;5076392;28;20525;-89
2021/10/17 13:25:06;;;;;;;9.43;7.10;;;19.90;37.60;;;;;;5076681;28;20467;-89
2021/10/17 13:27:33;;;;;;;15.73;10.43;;;19.90;41.50;;;;;;5079954;28;20450;-89
2021/10/17 13:30:00;;;;;;;15.53;11.00;;;20.10;38.90;;;;;;5080574;28;20444;-90
2021/10/17 13:32:27;;;;;;;17.70;11.93;;;20.30;37.50;;;;;;5078357;28;20478;-90
2021/10/17 13:34:55;;;;;;;18.50;11.10;;;20.30;37.50;;;;;;5079219;28;20535;-92
2021/10/17 13:37:24;;;;;;;16.43;12.30;;;20.30;37.50;;;;;;5077383;28;20436;-90
2021/10/17 13:39:51;;;;;;;15.00;11.07;;;20.10;37.30;;;;;;5075590;28;20449;-89
2021/10/17 13:42:18;;;;;;;17.43;12.20;;;20.00;37.50;;;;;;5075696;28;20918;-88
2021/10/17 13:44:45;;;;;;;15.50;10.87;;;19.40;37.90;;;;;;5075799;28;21023;-89
2021/10/17 13:47:12;;;;;;;16.40;12.03;;;18.80;39.30;;;;;;5077248;28;20526;-89
2021/10/17 13:49:39;;;;;;;18.87;12.00;;;18.50;40.70;;;;;;5076845;28;20533;-89
2021/10/17 13:52:07;;;;;;;14.60;9.90;;;19.00;39.70;;;;;;5079269;28;20458;-88
2021/10/17 13:54:35;;;;;;;19.80;12.27;;;19.20;40.60;;;;;;5076434;28;20455;-88
2021/10/17 13:57:02;;;;;;;21.63;14.40;;;19.10;39.60;;;;;;5077389;28;20467;-90
2021/10/17 13:59:29;;;;;;;21.27;14.77;;;17.80;43.80;;;;;;5077434;28;20446;-89
2021/10/17 14:01:58;;;;;;;20.80;13.93;;;17.40;44.10;;;;;;5077133;28;20915;-89
2021/10/17 14:04:26;;;;;;;24.93;16.77;;;17.20;45.40;;;;;;5077894;28;20514;-89
2021/10/17 14:06:53;;;;;;;29.97;17.57;;;17.00;45.90;;;;;;5077633;28;20870;-89
2021/10/17 14:09:22;;;;;;;25.53;16.53;;;17.00;46.00;;;;;;5076730;28;20534;-88
2021/10/17 14:11:50;;;;;;;22.63;15.27;;;16.90;46.10;;;;;;5076736;28;20443;-88
2021/10/17 14:14:22;;;;;;;21.83;14.63;;;16.70;47.20;;;;;;5076080;28;20525;-89
2021/10/17 14:16:49;;;;;;;28.37;15.13;;;16.80;47.40;;;;;;5077401;28;20470;-90
2021/10/17 14:19:16;;;;;;;23.20;14.80;;;17.00;46.40;;;;;;5076776;28;20451;-88
2021/10/17 14:21:44;;;;;;;17.47;13.10;;;17.20;45.60;;;;;;5081515;28;20518;-89
2021/10/17 14:24:11;;;;;;;24.33;14.17;;;17.20;46.10;;;;;;5075285;28;20482;-89
2021/10/17 14:26:38;;;;;;;20.03;13.57;;;17.30;45.90;;;;;;5089493;28;20478;-86
2021/10/17 14:29:07;;;;;;;22.00;14.60;;;16.80;46.60;;;;;;5092997;28;20475;-88
2021/10/17 14:31:35;;;;;;;33.00;16.00;;;16.20;48.10;;;;;;5088305;28;20431;-88
2021/10/17 14:34:02;;;;;;;21.53;15.57;;;16.00;48.80;;;;;;5075588;28;20467;-88
2021/10/17 14:36:29;;;;;;;22.27;16.40;;;15.70;50.10;;;;;;5077959;28;20455;-89
2021/10/17 14:38:58;;;;;;;23.10;15.37;;;15.70;50.90;;;;;;5088568;28;20458;-89
2021/10/17 14:41:30;;;;;;;24.07;16.07;;;16.00;50.30;;;;;;5084064;28;20466;-90
2021/10/17 14:43:59;;;;;;;25.23;16.13;;;16.00;49.70;;;;;;5081036;28;20451;-88
2021/10/17 14:46:29;;;;;;;23.57;14.40;;;16.10;48.70;;;;;;5085280;28;20539;-90
2021/10/17 14:48:56;;;;;;;36.73;19.10;;;15.80;49.80;;;;;;5074595;28;20508;-88
2021/10/17 14:51:26;;;;;;;20.73;14.20;;;15.60;50.20;;;;;;5074225;28;20427;-89
2021/10/17 14:53:52;;;;;;;26.47;16.77;;;16.00;49.30;;;;;;5084016;28;20474;-88
2021/10/17 14:59:05;;;;;;;27.83;17.53;;;15.70;49.80;;;;;;5079970;28;20489;-89
2021/10/17 15:01:34;;;;;;;30.97;16.80;;;15.30;50.70;;;;;;5084467;28;20440;-88
2021/10/17 15:04:02;;;;;;;27.53;17.50;;;14.90;51.40;;;;;;5087050;28;20454;-89
2021/10/17 15:06:29;;;;;;;29.10;17.70;;;14.70;52.20;;;;;;5089476;28;20511;-89
2021/10/17 15:08:56;;;;;;;26.50;17.67;;;14.60;52.30;;;;;;5087146;28;20439;-88
2021/10/17 15:11:23;;;;;;;28.73;16.50;;;14.90;52.30;;;;;;5076945;28;20519;-89
2021/10/17 15:13:50;;;;;;;28.17;16.90;;;14.60;52.20;;;;;;5077843;28;20440;-88
2021/10/17 15:16:17;;;;;;;27.50;16.97;;;14.40;53.50;;;;;;5079578;28;20431;-89
2021/10/17 15:18:45;;;;;;;27.63;16.07;;;14.20;53.40;;;;;;5078092;28;20431;-89
2021/10/17 15:21:12;;;;;;;25.13;16.20;;;13.80;54.60;;;;;;5076683;28;20450;-90
2021/10/17 15:23:39;;;;;;;35.77;19.17;;;13.70;55.40;;;;;;5080098;28;20479;-90
2021/10/17 15:26:06;;;;;;;53.50;24.30;;;13.50;55.70;;;;;;5080375;28;20493;-90
2021/10/17 15:28:33;;;;;;;41.20;21.83;;;13.30;56.30;;;;;;5082125;28;20459;-89
2021/10/17 15:31:00;;;;;;;40.10;22.10;;;13.60;55.70;;;;;;5080228;28;20447;-89
2021/10/17 15:33:27;;;;;;;29.97;18.70;;;13.60;55.10;;;;;;5079842;28;20480;-89
2021/10/17 15:35:56;;;;;;;30.00;18.93;;;13.30;55.30;;;;;;5080980;28;20542;-90
2021/10/17 15:38:28;;;;;;;30.70;19.03;;;12.80;57.10;;;;;;5082155;28;20809;-89
2021/10/17 15:40:55;;;;;;;32.13;19.80;;;13.20;56.50;;;;;;5084735;28;20415;-89
2021/10/17 19:58:17;;;;;;;62.73;30.60;;;14.80;52.00;;;;;;5113550;28;20822;-89
2021/10/17 20:00:44;;;;;;;62.87;33.17;;;14.90;51.50;;;;;;5114878;28;20447;-90
2021/10/17 20:03:12;;;;;;;64.33;33.80;;;15.10;50.90;;;;;;5118534;28;20516;-88
2021/10/17 20:05:39;;;;;;;58.30;30.00;;;15.00;50.60;;;;;;5114609;28;20453;-88
2021/10/17 20:08:06;;;;;;;33.37;19.60;;;15.20;51.00;;;;;;5115929;28;20492;-89
2021/10/17 20:10:34;;;;;;;26.47;15.50;;;15.50;52.30;;;;;;5115922;28;20473;-88
2021/10/17 20:13:04;;;;;;;41.27;22.80;;;15.80;52.10;;;;;;5116520;28;20485;-89
2021/10/17 20:15:32;;;;;;;50.50;29.10;;;16.30;50.50;;;;;;5116038;28;20449;-88
2021/10/17 20:18:01;;;;;;;43.70;25.10;;;16.20;49.00;;;;;;5114579;28;20501;-89
2021/10/17 20:20:28;;;;;;;49.30;26.20;;;16.30;49.90;;;;;;5114015;28;20447;-89
2021/10/17 20:22:55;;;;;;;62.03;33.93;;;16.00;48.10;;;;;;5105967;28;20539;-89
2021/10/17 20:25:23;;;;;;;48.17;26.47;;;15.90;48.10;;;;;;5104019;28;20458;-90
2021/10/17 20:27:52;;;;;;;36.53;21.13;;;15.80;48.00;;;;;;5103789;28;20454;-90
2021/10/17 20:30:19;;;;;;;25.70;15.90;;;16.10;50.30;;;;;;5104470;28;20448;-89
2021/10/17 20:32:47;;;;;;;42.97;22.80;;;16.10;51.00;;;;;;5104455;28;20445;-89
2021/10/17 20:35:17;;;;;;;27.13;16.57;;;16.30;48.60;;;;;;5105047;28;20475;-88
2021/10/17 20:37:51;;;;;;;39.73;20.37;;;16.20;49.20;;;;;;5102988;28;20444;-89
2021/10/17 20:40:19;;;;;;;42.23;25.10;;;16.20;48.50;;;;;;5103876;28;20444;-88
2021/10/17 20:42:46;;;;;;;50.30;24.57;;;16.20;49.30;;;;;;5102716;28;20973;-89
2021/10/17 20:45:13;;;;;;;26.47;16.07;;;16.20;48.20;;;;;;5102789;28;20487;-89
2021/10/17 20:47:40;;;;;;;24.90;14.13;;;16.50;51.40;;;;;;5102761;28;20432;-89
2021/10/17 20:50:12;;;;;;;34.77;20.93;;;16.90;50.80;;;;;;5102855;28;20434;-88
2021/10/17 20:52:39;;;;;;;42.63;25.77;;;16.90;46.70;;;;;;5103062;28;20439;-89
2021/10/17 20:55:07;;;;;;;22.10;13.43;;;16.90;48.90;;;;;;5101911;28;20480;-89
2021/10/17 20:57:34;;;;;;;30.87;16.80;;;16.90;50.60;;;;;;5104388;28;20485;-88
2021/10/17 21:00:01;;;;;;;28.70;15.67;;;17.00;51.00;;;;;;5103666;28;20495;-88
2021/10/17 21:02:28;;;;;;;20.27;12.77;;;17.20;50.40;;;;;;5103221;28;20860;-88
2021/10/17 21:04:55;;;;;;;34.87;19.07;;;17.30;50.80;;;;;;5104903;28;20500;-89
2021/10/17 21:07:23;;;;;;;22.67;14.27;;;17.50;50.20;;;;;;5103703;28;20431;-88
2021/10/17 21:09:50;;;;;;;18.67;12.40;;;17.50;49.90;;;;;;5105888;28;20969;-89
2021/10/17 21:12:18;;;;;;;27.73;17.47;;;17.60;49.90;;;;;;5106168;28;20512;-89
2021/10/17 21:14:46;;;;;;;28.63;16.43;;;17.60;49.70;;;;;;5111430;28;20466;-89
2021/10/17 21:17:13;;;;;;;27.30;16.23;;;17.80;49.70;;;;;;5117489;28;20464;-90
2021/10/17 21:19:40;;;;;;;49.00;25.80;;;18.00;49.90;;;;;;5117719;28;20425;-90
2021/10/17 21:22:07;;;;;;;32.00;19.80;;;17.70;47.30;;;;;;5118011;28;20458;-88
2021/10/17 21:24:35;;;;;;;27.23;15.33;;;17.20;48.30;;;;;;5112557;28;20461;-88
2021/10/17 21:27:03;;;;;;;32.37;17.77;;;17.00;48.80;;;;;;5118169;28;20430;-89
2021/10/17 21:29:30;;;;;;;45.50;24.90;;;17.20;47.30;;;;;;5118104;28;20434;-89
2021/10/17 21:31:57;;;;;;;33.40;20.60;;;17.00;47.10;;;;;;5116771;28;20454;-89
2021/10/17 21:34:25;;;;;;;20.13;13.90;;;17.00;48.60;;;;;;5111338;28;20458;-89
2021/10/17 21:36:52;;;;;;;23.63;13.93;;;17.10;50.10;;;;;;5102232;28;20546;-88
2021/10/17 21:39:20;;;;;;;24.20;14.90;;;17.40;50.40;;;;;;5101944;28;20457;-88
2021/10/17 21:42:04;;;;;;;16.30;11.10;;;17.60;49.60;;;;;;5100328;28;20851;-89
2021/10/17 21:44:31;;;;;;;20.00;11.83;;;17.80;49.60;;;;;;5099502;28;20474;-88
2021/10/17 21:46:58;;;;;;;17.57;11.27;;;17.90;49.60;;;;;;5102618;28;20792;-88
2021/10/17 21:49:27;;;;;;;24.10;15.07;;;18.20;48.50;;;;;;5116530;28;20429;-89
2021/10/17 21:51:54;;;;;;;14.90;10.40;;;18.10;48.60;;;;;;5108151;28;20456;-88
2021/10/17 21:54:21;;;;;;;24.77;14.40;;;18.00;48.70;;;;;;5103339;28;20823;-88
2021/10/17 21:59:40;;;;;;;23.63;14.30;;;17.90;49.00;;;;;;5098672;28;20445;-88
2021/10/17 22:02:08;;;;;;;21.47;13.13;;;17.60;49.10;;;;;;5104228;28;20442;-88
2021/10/17 22:04:35;;;;;;;22.27;13.93;;;17.80;49.60;;;;;;5103552;28;20482;-88
2021/10/17 22:07:02;;;;;;;21.17;13.17;;;17.80;49.30;;;;;;5103041;28;20453;-88
2021/10/17 22:09:30;;;;;;;21.10;11.70;;;17.80;49.20;;;;;;5104515;28;20965;-88
2021/10/17 22:11:57;;;;;;;25.33;14.53;;;17.70;49.10;;;;;;5102831;28;20457;-88
2021/10/17 22:14:24;;;;;;;23.77;13.43;;;17.60;49.60;;;;;;5101670;28;20458;-88
2021/10/17 22:16:52;;;;;;;27.53;16.37;;;17.60;49.50;;;;;;5101795;28;20466;-88
2021/10/17 22:19:19;;;;;;;33.90;20.97;;;17.60;49.20;;;;;;5101374;28;20446;-88
2021/10/17 22:21:47;;;;;;;25.53;16.20;;;17.50;48.80;;;;;;5102773;28;20454;-88
2021/10/17 22:24:14;;;;;;;25.93;15.57;;;17.20;49.20;;;;;;5101669;28;20478;-88
2021/10/17 22:26:42;;;;;;;21.37;13.60;;;17.00;48.90;;;;;;5100913;28;20453;-88
2021/10/17 22:29:09;;;;;;;20.40;11.63;;;17.10;50.20;;;;;;5099756;28;20479;-88
2021/10/17 22:31:36;;;;;;;24.00;13.77;;;17.20;49.30;;;;;;5100234;28;20949;-88
2021/10/17 22:34:05;;;;;;;26.70;16.97;;;17.30;50.30;;;;;;5099516;28;20466;-88
2021/10/17 22:36:32;;;;;;;29.77;17.90;;;17.10;49.20;;;;;;5100550;28;20446;-88
2021/10/17 22:38:59;;;;;;;19.67;13.53;;;17.20;47.80;;;;;;5101266;28;20458;-89
2021/10/17 22:41:27;;;;;;;29.23;18.40;;;17.10;49.80;;;;;;5102466;28;20452;-88
2021/10/17 22:43:54;;;;;;;23.20;15.30;;;17.20;49.80;;;;;;5105020;28;20476;-88
2021/10/17 22:46:21;;;;;;;15.60;10.83;;;17.10;49.20;;;;;;5101830;28;20457;-88
2021/10/17 22:48:48;;;;;;;25.77;15.03;;;17.10;49.90;;;;;;5098144;28;20768;-88
2021/10/17 22:51:18;;;;;;;25.07;15.70;;;17.10;49.70;;;;;;5095875;28;20465;-88
2021/10/17 22:53:46;;;;;;;35.73;20.30;;;17.00;50.10;;;;;;5095266;28;20822;-88
2021/10/17 22:56:13;;;;;;;25.90;15.80;;;17.10;47.10;;;;;;5094156;28;20465;-88
2021/10/17 22:58:41;;;;;;;23.87;15.03;;;16.90;49.40;;;;;;5093866;28;20861;-88
2021/10/17 23:01:08;;;;;;;24.13;15.03;;;16.90;50.20;;;;;;5094151;28;20453;-89
2021/10/17 23:03:36;;;;;;;32.27;17.40;;;16.80;50.60;;;;;;5093822;28;20561;-88
2021/10/17 23:06:03;;;;;;;31.97;19.17;;;16.70;50.60;;;;;;5094557;28;20462;-88
2021/10/17 23:08:31;;;;;;;21.97;14.00;;;16.00;48.10;;;;;;5094557;28;20446;-89
2021/10/17 23:10:59;;;;;;;28.70;17.80;;;16.20;51.20;;;;;;5094476;28;20461;-89
2021/10/17 23:13:26;;;;;;;24.33;13.73;;;16.20;48.30;;;;;;5094071;28;20983;-89
2021/10/17 23:15:53;;;;;;;16.53;10.43;;;15.90;51.10;;;;;;5095461;28;20790;-89
2021/10/17 23:18:20;;;;;;;21.80;13.80;;;16.00;52.40;;;;;;5094445;28;20527;-89
2021/10/17 23:20:48;;;;;;;17.50;11.37;;;16.20;51.50;;;;;;5106123;28;20456;-88
2021/10/17 23:23:15;;;;;;;29.30;18.43;;;16.20;50.00;;;;;;5108564;28;20565;-88
2021/10/17 23:25:43;;;;;;;25.40;14.70;;;16.20;51.00;;;;;;5093972;28;20953;-88
2021/10/17 23:28:10;;;;;;;28.47;13.17;;;16.20;51.50;;;;;;5094143;28;20440;-88
2021/10/17 23:30:38;;;;;;;25.17;15.30;;;16.10;50.20;;;;;;5094977;28;20501;-88
2021/10/17 23:33:05;;;;;;;25.57;15.30;;;16.30;51.30;;;;;;5093910;28;20461;-88
2021/10/17 23:35:32;;;;;;;16.80;10.90;;;16.40;51.10;;;;;;5094214;28;20457;-88
2021/10/17 23:38:00;;;;;;;27.80;17.33;;;16.50;51.30;;;;;;5094586;28;20815;-88
2021/10/17 23:40:28;;;;;;;20.50;12.90;;;16.50;51.00;;;;;;5094515;28;20929;-88
2021/10/17 23:42:57;;;;;;;19.77;12.40;;;16.60;50.40;;;;;;5094022;28;20546;-88
2021/10/17 23:45:24;;;;;;;21.83;13.50;;;16.60;50.00;;;;;;5095053;28;20567;-88
2021/10/17 23:47:51;;;;;;;29.33;18.47;;;16.60;50.80;;;;;;5096274;28;20494;-88
2021/10/17 23:50:18;;;;;;;24.17;15.40;;;16.30;49.80;;;;;;5096751;28;20439;-88
2021/10/17 23:52:45;;;;;;;31.47;19.43;;;16.10;50.10;;;;;;5097249;28;20457;-88
2021/10/17 23:55:12;;;;;;;23.30;14.47;;;15.90;47.40;;;;;;5097534;28;20527;-89
2021/10/17 23:57:40;;;;;;;28.10;16.20;;;15.70;50.00;;;;;;5097560;28;20895;-88
